sensor_id;sensor_type;location;lat;lon;timestamp;pressure;altitude;pressure_sealevel;temperature;humidity
9899;BME280;4988;49.238;6.698;2023-04-26T00:00:16;99303.28;;;4.29;94.07
9899;BME280;4988;49.238;6.698;2023-04-26T00:02:41;99302.41;;;4.29;94.43
9899;BME280;4988;49.238;6.698;2023-04-26T00:05:07;99306.78;;;4.30;93.73
9899;BME280;4988;49.238;6.698;2023-04-26T00:07:33;99314.59;;;4.36;93.15
9899;BME280;4988;49.238;6.698;2023-04-26T00:09:59;99311.88;;;4.39;93.18
9899;BME280;4988;49.238;6.698;2023-04-26T00:12:25;99312.00;;;4.33;92.65
9899;BME280;4988;49.238;6.698;2023-04-26T00:14:50;99307.53;;;4.37;90.41
9899;BME280;4988;49.238;6.698;2023-04-26T00:17:15;99317.53;;;4.17;90.86
9899;BME280;4988;49.238;6.698;2023-04-26T00:19:41;99312.44;;;4.08;92.14
9899;BME280;4988;49.238;6.698;2023-04-26T00:22:06;99314.28;;;4.01;92.52
9899;BME280;4988;49.238;6.698;2023-04-26T00:24:33;99318.91;;;3.89;92.82
9899;BME280;4988;49.238;6.698;2023-04-26T00:26:58;99319.75;;;3.91;93.32
9899;BME280;4988;49.238;6.698;2023-04-26T00:29:24;99324.03;;;3.98;91.24
9899;BME280;4988;49.238;6.698;2023-04-26T00:31:50;99319.66;;;3.97;90.80
9899;BME280;4988;49.238;6.698;2023-04-26T00:34:15;99319.78;;;3.88;92.25
9899;BME280;4988;49.238;6.698;2023-04-26T00:36:41;99320.78;;;3.80;91.05
9899;BME280;4988;49.238;6.698;2023-04-26T00:39:06;99315.63;;;3.73;91.56
9899;BME280;4988;49.238;6.698;2023-04-26T00:41:33;99315.72;;;3.66;92.35
9899;BME280;4988;49.238;6.698;2023-04-26T00:43:58;99311.50;;;3.54;92.73
9899;BME280;4988;49.238;6.698;2023-04-26T00:46:24;99312.38;;;3.55;94.57
9899;BME280;4988;49.238;6.698;2023-04-26T00:48:50;99311.47;;;3.58;93.36
9899;BME280;4988;49.238;6.698;2023-04-26T00:51:15;99307.97;;;3.56;93.23
9899;BME280;4988;49.238;6.698;2023-04-26T00:53:41;99307.88;;;3.62;92.25
9899;BME280;4988;49.238;6.698;2023-04-26T00:56:08;99306.25;;;3.54;92.15
9899;BME280;4988;49.238;6.698;2023-04-26T00:58:35;99308.94;;;3.51;93.22
9899;BME280;4988;49.238;6.698;2023-04-26T01:01:01;99301.09;;;3.47;93.76
9899;BME280;4988;49.238;6.698;2023-04-26T01:03:26;99309.84;;;3.47;93.37
9899;BME280;4988;49.238;6.698;2023-04-26T01:05:52;99308.06;;;3.49;93.11
9899;BME280;4988;49.238;6.698;2023-04-26T01:08:17;99308.06;;;3.49;93.48
9899;BME280;4988;49.238;6.698;2023-04-26T01:10:46;99305.44;;;3.49;92.71
9899;BME280;4988;49.238;6.698;2023-04-26T01:13:12;99301.88;;;3.53;92.56
9899;BME280;4988;49.238;6.698;2023-04-26T01:15:44;99307.22;;;3.47;93.51
9899;BME280;4988;49.238;6.698;2023-04-26T01:18:10;99302.91;;;3.43;95.10
9899;BME280;4988;49.238;6.698;2023-04-26T01:20:36;99300.97;;;3.56;94.58
9899;BME280;4988;49.238;6.698;2023-04-26T01:23:02;99302.53;;;3.68;93.66
9899;BME280;4988;49.238;6.698;2023-04-26T01:25:27;99301.63;;;3.70;93.14
9899;BME280;4988;49.238;6.698;2023-04-26T01:27:53;99307.13;;;3.55;93.03
9899;BME280;4988;49.238;6.698;2023-04-26T01:30:18;99301.97;;;3.46;93.50
9899;BME280;4988;49.238;6.698;2023-04-26T01:32:43;99304.66;;;3.44;92.09
9899;BME280;4988;49.238;6.698;2023-04-26T01:35:09;99306.56;;;3.31;91.56
9899;BME280;4988;49.238;6.698;2023-04-26T01:37:34;99303.13;;;3.28;92.02
9899;BME280;4988;49.238;6.698;2023-04-26T01:40:00;99308.63;;;3.11;92.18
9899;BME280;4988;49.238;6.698;2023-04-26T01:42:25;99308.72;;;3.01;92.63
9899;BME280;4988;49.238;6.698;2023-04-26T01:44:50;99313.97;;;3.04;93.07
9899;BME280;4988;49.238;6.698;2023-04-26T01:47:16;99318.34;;;3.02;93.75
9899;BME280;4988;49.238;6.698;2023-04-26T01:49:41;99318.34;;;3.02;92.59
9899;BME280;4988;49.238;6.698;2023-04-26T01:52:06;99317.59;;;2.93;92.24
9899;BME280;4988;49.238;6.698;2023-04-26T01:54:32;99324.91;;;2.66;92.23
9899;BME280;4988;49.238;6.698;2023-04-26T01:56:57;99316.97;;;2.73;92.54
9899;BME280;4988;49.238;6.698;2023-04-26T01:59:22;99314.31;;;2.75;92.51
9899;BME280;4988;49.238;6.698;2023-04-26T02:01:48;99316.00;;;2.79;91.57
9899;BME280;4988;49.238;6.698;2023-04-26T02:04:13;99319.56;;;2.75;91.25
9899;BME280;4988;49.238;6.698;2023-04-26T02:06:38;99317.91;;;2.65;92.17
9899;BME280;4988;49.238;6.698;2023-04-26T02:09:05;99322.25;;;2.70;92.12
9899;BME280;4988;49.238;6.698;2023-04-26T02:11:33;99323.22;;;2.58;93.23
9899;BME280;4988;49.238;6.698;2023-04-26T02:13:58;99312.72;;;2.58;93.63
9899;BME280;4988;49.238;6.698;2023-04-26T02:16:23;99320.59;;;2.58;94.91
9899;BME280;4988;49.238;6.698;2023-04-26T02:18:49;99312.69;;;2.62;94.81
9899;BME280;4988;49.238;6.698;2023-04-26T02:21:18;99311.94;;;2.50;93.45
9899;BME280;4988;49.238;6.698;2023-04-26T02:23:43;99312.81;;;2.51;95.00
9899;BME280;4988;49.238;6.698;2023-04-26T02:26:09;99310.13;;;2.57;94.51
9899;BME280;4988;49.238;6.698;2023-04-26T02:28:35;99311.88;;;2.56;95.72
9899;BME280;4988;49.238;6.698;2023-04-26T02:31:01;99306.59;;;2.58;95.45
9899;BME280;4988;49.238;6.698;2023-04-26T02:33:27;99308.38;;;2.56;95.27
9899;BME280;4988;49.238;6.698;2023-04-26T02:35:52;99305.69;;;2.61;94.79
9899;BME280;4988;49.238;6.698;2023-04-26T02:38:17;99304.81;;;2.62;93.09
9899;BME280;4988;49.238;6.698;2023-04-26T02:40:43;99309.22;;;2.58;93.71
9899;BME280;4988;49.238;6.698;2023-04-26T02:43:08;99309.25;;;2.56;93.19
9899;BME280;4988;49.238;6.698;2023-04-26T02:45:40;99303.09;;;2.59;93.46
9899;BME280;4988;49.238;6.698;2023-04-26T02:48:05;99294.47;;;2.48;95.22
9899;BME280;4988;49.238;6.698;2023-04-26T02:50:30;99307.50;;;2.55;92.51
9899;BME280;4988;49.238;6.698;2023-04-26T02:52:56;99302.19;;;2.62;91.52
9899;BME280;4988;49.238;6.698;2023-04-26T02:55:21;99308.31;;;2.62;90.66
9899;BME280;4988;49.238;6.698;2023-04-26T02:57:47;99309.25;;;2.55;91.29
9899;BME280;4988;49.238;6.698;2023-04-26T03:00:12;99315.50;;;2.45;93.54
9899;BME280;4988;49.238;6.698;2023-04-26T03:02:40;99311.16;;;2.42;93.24
9899;BME280;4988;49.238;6.698;2023-04-26T03:05:06;99306.69;;;2.49;93.34
9899;BME280;4988;49.238;6.698;2023-04-26T03:07:31;99304.97;;;2.46;92.93
9899;BME280;4988;49.238;6.698;2023-04-26T03:09:58;99292.75;;;2.42;92.92
9899;BME280;4988;49.238;6.698;2023-04-26T03:12:23;99291.03;;;2.39;94.06
9899;BME280;4988;49.238;6.698;2023-04-26T03:14:48;99290.19;;;2.36;93.43
9899;BME280;4988;49.238;6.698;2023-04-26T03:17:14;99292.88;;;2.31;94.63
9899;BME280;4988;49.238;6.698;2023-04-26T03:19:39;99281.38;;;2.43;93.18
9899;BME280;4988;49.238;6.698;2023-04-26T03:22:04;99281.38;;;2.43;91.11
9899;BME280;4988;49.238;6.698;2023-04-26T03:24:30;99284.03;;;2.41;92.32
9899;BME280;4988;49.238;6.698;2023-04-26T03:26:55;99281.44;;;2.34;93.23
9899;BME280;4988;49.238;6.698;2023-04-26T03:29:22;99283.19;;;2.36;92.28
9899;BME280;4988;49.238;6.698;2023-04-26T03:31:47;99284.16;;;2.26;93.24
9899;BME280;4988;49.238;6.698;2023-04-26T03:34:12;99282.41;;;2.25;91.29
9899;BME280;4988;49.238;6.698;2023-04-26T03:36:37;99284.28;;;2.14;91.95
9899;BME280;4988;49.238;6.698;2023-04-26T03:39:03;99284.31;;;2.11;92.87
9899;BME280;4988;49.238;6.698;2023-04-26T03:41:30;99293.13;;;2.02;92.74
9899;BME280;4988;49.238;6.698;2023-04-26T03:43:57;99295.81;;;1.96;92.94
9899;BME280;4988;49.238;6.698;2023-04-26T03:46:22;99292.28;;;1.98;92.57
9899;BME280;4988;49.238;6.698;2023-04-26T03:48:47;99288.78;;;2.02;91.69
9899;BME280;4988;49.238;6.698;2023-04-26T03:51:13;99285.25;;;2.02;91.24
9899;BME280;4988;49.238;6.698;2023-04-26T03:53:38;99289.66;;;1.98;91.36
9899;BME280;4988;49.238;6.698;2023-04-26T03:56:04;99290.53;;;2.00;92.81
9899;BME280;4988;49.238;6.698;2023-04-26T03:58:29;99288.81;;;1.98;93.22
9899;BME280;4988;49.238;6.698;2023-04-26T04:00:57;99292.28;;;2.01;93.33
9899;BME280;4988;49.238;6.698;2023-04-26T04:03:23;99294.06;;;1.98;92.99
9899;BME280;4988;49.238;6.698;2023-04-26T04:05:48;99290.56;;;1.99;91.62
9899;BME280;4988;49.238;6.698;2023-04-26T04:08:13;99297.50;;;2.06;92.08
9899;BME280;4988;49.238;6.698;2023-04-26T04:10:39;99296.75;;;1.91;92.51
9899;BME280;4988;49.238;6.698;2023-04-26T04:13:06;99302.13;;;1.77;90.19
9899;BME280;4988;49.238;6.698;2023-04-26T04:15:32;99298.66;;;1.71;91.75
9899;BME280;4988;49.238;6.698;2023-04-26T04:17:57;99303.88;;;1.72;92.91
9899;BME280;4988;49.238;6.698;2023-04-26T04:20:22;99294.31;;;1.64;93.30
9899;BME280;4988;49.238;6.698;2023-04-26T04:22:47;99294.25;;;1.74;91.73
9899;BME280;4988;49.238;6.698;2023-04-26T04:25:13;99295.16;;;1.70;92.47
9899;BME280;4988;49.238;6.698;2023-04-26T04:27:39;99299.56;;;1.64;93.97
9899;BME280;4988;49.238;6.698;2023-04-26T04:30:07;99307.47;;;1.60;95.89
9899;BME280;4988;49.238;6.698;2023-04-26T04:32:33;99306.56;;;1.68;93.97
9899;BME280;4988;49.238;6.698;2023-04-26T04:34:59;99310.06;;;1.64;94.98
9899;BME280;4988;49.238;6.698;2023-04-26T04:37:24;99318.75;;;1.69;94.68
9899;BME280;4988;49.238;6.698;2023-04-26T04:39:51;99309.97;;;1.76;93.77
9899;BME280;4988;49.238;6.698;2023-04-26T04:42:16;99313.50;;;1.73;94.68
9899;BME280;4988;49.238;6.698;2023-04-26T04:44:42;99320.47;;;1.79;93.69
9899;BME280;4988;49.238;6.698;2023-04-26T04:47:07;99322.19;;;1.82;93.76
9899;BME280;4988;49.238;6.698;2023-04-26T04:49:32;99314.25;;;1.88;92.95
9899;BME280;4988;49.238;6.698;2023-04-26T04:51:58;99315.97;;;1.92;92.13
9899;BME280;4988;49.238;6.698;2023-04-26T04:54:25;99313.38;;;1.90;92.24
9899;BME280;4988;49.238;6.698;2023-04-26T04:56:50;99309.88;;;1.88;92.40
9899;BME280;4988;49.238;6.698;2023-04-26T04:59:16;99319.50;;;1.89;92.53
9899;BME280;4988;49.238;6.698;2023-04-26T05:01:41;99316.88;;;1.92;92.32
9899;BME280;4988;49.238;6.698;2023-04-26T05:04:06;99321.22;;;1.92;93.17
9899;BME280;4988;49.238;6.698;2023-04-26T05:06:32;99334.34;;;1.93;93.49
9899;BME280;4988;49.238;6.698;2023-04-26T05:08:58;99333.44;;;1.98;93.98
9899;BME280;4988;49.238;6.698;2023-04-26T05:11:23;99344.81;;;1.97;93.42
9899;BME280;4988;49.238;6.698;2023-04-26T05:13:49;99338.69;;;1.95;94.00
9899;BME280;4988;49.238;6.698;2023-04-26T05:16:14;99348.16;;;2.14;94.54
9899;BME280;4988;49.238;6.698;2023-04-26T05:18:40;99349.00;;;2.21;94.89
9899;BME280;4988;49.238;6.698;2023-04-26T05:21:05;99348.84;;;2.36;93.65
9899;BME280;4988;49.238;6.698;2023-04-26T05:23:31;99351.34;;;2.49;93.05
9899;BME280;4988;49.238;6.698;2023-04-26T05:26:00;99360.00;;;2.62;92.66
9899;BME280;4988;49.238;6.698;2023-04-26T05:28:26;99350.28;;;2.70;91.74
9899;BME280;4988;49.238;6.698;2023-04-26T05:30:51;99351.13;;;2.72;91.72
9899;BME280;4988;49.238;6.698;2023-04-26T05:33:16;99351.06;;;2.80;92.23
9899;BME280;4988;49.238;6.698;2023-04-26T05:35:42;99358.81;;;2.89;92.09
9899;BME280;4988;49.238;6.698;2023-04-26T05:38:07;99359.66;;;2.93;91.79
9899;BME280;4988;49.238;6.698;2023-04-26T05:40:33;99356.16;;;2.94;91.55
9899;BME280;4988;49.238;6.698;2023-04-26T05:42:58;99356.19;;;2.90;92.42
9899;BME280;4988;49.238;6.698;2023-04-26T05:45:23;99353.44;;;3.00;92.42
9899;BME280;4988;49.238;6.698;2023-04-26T05:47:49;99348.13;;;3.06;92.17
9899;BME280;4988;49.238;6.698;2023-04-26T05:50:15;99350.69;;;3.09;92.46
9899;BME280;4988;49.238;6.698;2023-04-26T05:52:40;99354.25;;;3.05;92.89
9899;BME280;4988;49.238;6.698;2023-04-26T05:55:06;99351.44;;;3.19;93.39
9899;BME280;4988;49.238;6.698;2023-04-26T05:57:31;99348.81;;;3.20;93.40
9899;BME280;4988;49.238;6.698;2023-04-26T05:59:56;99358.41;;;3.25;94.16
9899;BME280;4988;49.238;6.698;2023-04-26T06:02:22;99352.00;;;3.44;94.06
9899;BME280;4988;49.238;6.698;2023-04-26T06:04:47;99354.44;;;3.58;93.24
9899;BME280;4988;49.238;6.698;2023-04-26T06:07:13;99348.13;;;3.70;93.76
9899;BME280;4988;49.238;6.698;2023-04-26T06:09:38;99348.06;;;3.73;92.44
9899;BME280;4988;49.238;6.698;2023-04-26T06:12:04;99350.75;;;3.72;92.83
9899;BME280;4988;49.238;6.698;2023-04-26T06:14:29;99348.13;;;3.70;92.90
9899;BME280;4988;49.238;6.698;2023-04-26T06:16:55;99345.38;;;3.78;93.28
9899;BME280;4988;49.238;6.698;2023-04-26T06:19:21;99342.69;;;3.82;93.64
9899;BME280;4988;49.238;6.698;2023-04-26T06:21:46;99349.59;;;3.90;92.78
9899;BME280;4988;49.238;6.698;2023-04-26T06:24:13;99354.91;;;3.88;93.05
9899;BME280;4988;49.238;6.698;2023-04-26T06:26:38;99360.97;;;3.93;92.74
9899;BME280;4988;49.238;6.698;2023-04-26T06:29:03;99354.81;;;3.93;92.99
9899;BME280;4988;49.238;6.698;2023-04-26T06:31:29;99358.25;;;3.98;93.75
9899;BME280;4988;49.238;6.698;2023-04-26T06:33:54;99352.81;;;4.09;93.09
9899;BME280;4988;49.238;6.698;2023-04-26T06:36:20;99365.81;;;4.19;93.28
9899;BME280;4988;49.238;6.698;2023-04-26T06:38:45;99359.56;;;4.24;91.30
9899;BME280;4988;49.238;6.698;2023-04-26T06:41:10;99355.09;;;4.30;92.24
9899;BME280;4988;49.238;6.698;2023-04-26T06:43:36;99356.66;;;4.42;91.48
9899;BME280;4988;49.238;6.698;2023-04-26T06:46:01;99351.31;;;4.45;91.63
9899;BME280;4988;49.238;6.698;2023-04-26T06:48:26;99345.06;;;4.49;90.73
9899;BME280;4988;49.238;6.698;2023-04-26T06:50:52;99359.00;;;4.58;91.20
9899;BME280;4988;49.238;6.698;2023-04-26T06:53:17;99350.00;;;4.68;91.65
9899;BME280;4988;49.238;6.698;2023-04-26T06:55:43;99355.97;;;4.79;91.33
9899;BME280;4988;49.238;6.698;2023-04-26T06:58:08;99359.19;;;4.94;91.01
9899;BME280;4988;49.238;6.698;2023-04-26T07:00:34;99354.53;;;5.08;90.05
9899;BME280;4988;49.238;6.698;2023-04-26T07:02:59;99359.50;;;5.24;88.79
9899;BME280;4988;49.238;6.698;2023-04-26T07:05:25;99353.78;;;5.44;87.86
9899;BME280;4988;49.238;6.698;2023-04-26T07:07:50;99357.81;;;5.62;87.05
9899;BME280;4988;49.238;6.698;2023-04-26T07:10:15;99351.19;;;5.82;86.20
9899;BME280;4988;49.238;6.698;2023-04-26T07:12:41;99346.31;;;6.04;84.69
9899;BME280;4988;49.238;6.698;2023-04-26T07:15:07;99346.34;;;6.01;83.24
9899;BME280;4988;49.238;6.698;2023-04-26T07:17:32;99347.00;;;6.10;83.11
9899;BME280;4988;49.238;6.698;2023-04-26T07:19:57;99339.66;;;6.23;81.30
9899;BME280;4988;49.238;6.698;2023-04-26T07:22:23;99345.56;;;6.33;82.83
9899;BME280;4988;49.238;6.698;2023-04-26T07:24:48;99341.09;;;6.35;81.90
9899;BME280;4988;49.238;6.698;2023-04-26T07:27:14;99344.38;;;6.45;79.94
9899;BME280;4988;49.238;6.698;2023-04-26T07:29:39;99339.66;;;6.58;78.37
9899;BME280;4988;49.238;6.698;2023-04-26T07:32:04;99341.78;;;6.76;78.40
9899;BME280;4988;49.238;6.698;2023-04-26T07:34:30;99344.06;;;6.90;78.24
9899;BME280;4988;49.238;6.698;2023-04-26T07:36:56;99342.75;;;7.05;77.14
9899;BME280;4988;49.238;6.698;2023-04-26T07:39:21;99334.56;;;7.15;77.08
9899;BME280;4988;49.238;6.698;2023-04-26T07:41:46;99338.59;;;7.28;76.95
9899;BME280;4988;49.238;6.698;2023-04-26T07:44:12;99330.88;;;7.49;77.53
9899;BME280;4988;49.238;6.698;2023-04-26T07:46:37;99342.81;;;7.64;75.90
9899;BME280;4988;49.238;6.698;2023-04-26T07:49:02;99332.88;;;7.70;75.28
9899;BME280;4988;49.238;6.698;2023-04-26T07:51:28;99331.84;;;7.76;75.08
9899;BME280;4988;49.238;6.698;2023-04-26T07:53:53;99318.13;;;7.90;74.16
9899;BME280;4988;49.238;6.698;2023-04-26T07:56:22;99327.50;;;8.02;76.83
9899;BME280;4988;49.238;6.698;2023-04-26T07:58:50;99329.34;;;8.25;76.52
9899;BME280;4988;49.238;6.698;2023-04-26T08:01:15;99322.00;;;8.33;73.42
9899;BME280;4988;49.238;6.698;2023-04-26T08:03:41;99322.13;;;8.30;74.28
9899;BME280;4988;49.238;6.698;2023-04-26T08:06:06;99317.03;;;8.24;72.63
9899;BME280;4988;49.238;6.698;2023-04-26T08:08:33;99317.25;;;8.18;74.12
9899;BME280;4988;49.238;6.698;2023-04-26T08:10:59;99318.25;;;8.14;73.19
9899;BME280;4988;49.238;6.698;2023-04-26T08:13:25;99309.09;;;8.24;73.38
9899;BME280;4988;49.238;6.698;2023-04-26T08:15:50;99303.50;;;8.32;74.14
9899;BME280;4988;49.238;6.698;2023-04-26T08:18:16;99308.31;;;8.46;73.49
9899;BME280;4988;49.238;6.698;2023-04-26T08:20:41;99307.06;;;8.58;73.76
9899;BME280;4988;49.238;6.698;2023-04-26T08:23:06;99309.13;;;8.75;70.35
9899;BME280;4988;49.238;6.698;2023-04-26T08:25:32;99307.88;;;8.85;70.75
9899;BME280;4988;49.238;6.698;2023-04-26T08:27:59;99315.59;;;8.91;69.43
9899;BME280;4988;49.238;6.698;2023-04-26T08:30:25;99312.63;;;9.00;69.18
9899;BME280;4988;49.238;6.698;2023-04-26T08:32:51;99320.41;;;9.05;69.00
9899;BME280;4988;49.238;6.698;2023-04-26T08:35:16;99320.25;;;9.10;68.44
9899;BME280;4988;49.238;6.698;2023-04-26T08:37:41;99319.59;;;9.27;68.84
9899;BME280;4988;49.238;6.698;2023-04-26T08:40:07;99320.22;;;9.33;66.85
9899;BME280;4988;49.238;6.698;2023-04-26T08:42:39;99316.00;;;9.52;65.74
9899;BME280;4988;49.238;6.698;2023-04-26T08:45:08;99310.59;;;9.77;65.52
9899;BME280;4988;49.238;6.698;2023-04-26T08:50:05;99308.94;;;10.17;64.39
9899;BME280;4988;49.238;6.698;2023-04-26T08:52:32;99308.31;;;10.33;61.00
9899;BME280;4988;49.238;6.698;2023-04-26T08:54:59;99306.56;;;10.54;63.90
9899;BME280;4988;49.238;6.698;2023-04-26T08:57:25;99302.34;;;10.69;63.31
9899;BME280;4988;49.238;6.698;2023-04-26T08:59:51;99303.44;;;10.85;60.34
9899;BME280;4988;49.238;6.698;2023-04-26T09:02:21;99296.28;;;10.86;60.39
9899;BME280;4988;49.238;6.698;2023-04-26T09:04:48;99291.81;;;10.86;60.12
9899;BME280;4988;49.238;6.698;2023-04-26T09:07:19;99299.03;;;10.84;59.58
9899;BME280;4988;49.238;6.698;2023-04-26T09:09:48;99297.94;;;10.88;59.72
9899;BME280;4988;49.238;6.698;2023-04-26T09:12:18;99295.56;;;10.82;58.39
9899;BME280;4988;49.238;6.698;2023-04-26T09:14:46;99301.63;;;10.86;57.79
9899;BME280;4988;49.238;6.698;2023-04-26T09:17:28;99293.34;;;10.92;57.25
9899;BME280;4988;49.238;6.698;2023-04-26T09:19:54;99301.25;;;10.93;56.76
9899;BME280;4988;49.238;6.698;2023-04-26T09:22:36;99297.63;;;10.75;57.60
9899;BME280;4988;49.238;6.698;2023-04-26T09:25:03;99297.56;;;10.56;56.52
9899;BME280;4988;49.238;6.698;2023-04-26T09:27:34;99300.13;;;10.59;57.34
9899;BME280;4988;49.238;6.698;2023-04-26T09:30:07;99291.91;;;10.64;57.06
9899;BME280;4988;49.238;6.698;2023-04-26T09:32:56;99287.31;;;10.68;52.58
9899;BME280;4988;49.238;6.698;2023-04-26T09:38:23;99283.81;;;10.86;50.92
9899;BME280;4988;49.238;6.698;2023-04-26T09:40:49;99288.66;;;10.78;49.29
9899;BME280;4988;49.238;6.698;2023-04-26T09:43:17;99286.72;;;10.82;49.71
9899;BME280;4988;49.238;6.698;2023-04-26T09:48:23;99287.16;;;10.91;50.89
9899;BME280;4988;49.238;6.698;2023-04-26T09:50:51;99286.59;;;11.04;50.29
9899;BME280;4988;49.238;6.698;2023-04-26T09:53:27;99281.28;;;11.23;50.76
9899;BME280;4988;49.238;6.698;2023-04-26T09:56:05;99283.44;;;11.34;51.47
9899;BME280;4988;49.238;6.698;2023-04-26T09:58:35;99280.34;;;11.43;47.02
9899;BME280;4988;49.238;6.698;2023-04-26T10:01:02;99278.34;;;11.48;45.95
9899;BME280;4988;49.238;6.698;2023-04-26T10:03:28;99273.56;;;11.55;47.03
9899;BME280;4988;49.238;6.698;2023-04-26T10:05:55;99273.47;;;11.56;44.46
9899;BME280;4988;49.238;6.698;2023-04-26T10:08:21;99284.53;;;11.68;45.21
9899;BME280;4988;49.238;6.698;2023-04-26T10:10:48;99280.53;;;11.77;45.90
9899;BME280;4988;49.238;6.698;2023-04-26T10:13:14;99275.13;;;11.78;46.06
9899;BME280;4988;49.238;6.698;2023-04-26T10:15:41;99275.91;;;11.80;46.52
9899;BME280;4988;49.238;6.698;2023-04-26T10:18:07;99274.03;;;12.01;46.69
9899;BME280;4988;49.238;6.698;2023-04-26T10:20:33;99264.56;;;11.94;46.50
9899;BME280;4988;49.238;6.698;2023-04-26T10:23:04;99269.41;;;12.05;47.19
9899;BME280;4988;49.238;6.698;2023-04-26T10:25:40;99256.81;;;12.07;48.89
9899;BME280;4988;49.238;6.698;2023-04-26T10:28:09;99248.84;;;12.25;48.59
9899;BME280;4988;49.238;6.698;2023-04-26T10:30:56;99245.19;;;12.26;48.31
9899;BME280;4988;49.238;6.698;2023-04-26T10:33:23;99245.78;;;12.15;48.44
9899;BME280;4988;49.238;6.698;2023-04-26T10:36:11;99240.50;;;12.13;48.94
9899;BME280;4988;49.238;6.698;2023-04-26T10:38:41;99233.75;;;12.23;50.98
9899;BME280;4988;49.238;6.698;2023-04-26T10:41:35;99233.25;;;12.68;51.23
9899;BME280;4988;49.238;6.698;2023-04-26T10:47:23;99224.84;;;12.92;47.00
9899;BME280;4988;49.238;6.698;2023-04-26T10:49:48;99219.00;;;13.01;46.86
9899;BME280;4988;49.238;6.698;2023-04-26T10:52:18;99212.69;;;13.02;45.93
9899;BME280;4988;49.238;6.698;2023-04-26T10:54:45;99209.72;;;13.08;47.66
9899;BME280;4988;49.238;6.698;2023-04-26T10:57:11;99203.31;;;13.11;47.30
9899;BME280;4988;49.238;6.698;2023-04-26T10:59:36;99201.59;;;13.10;47.21
9899;BME280;4988;49.238;6.698;2023-04-26T11:02:01;99201.84;;;13.05;48.16
9899;BME280;4988;49.238;6.698;2023-04-26T11:04:50;99203.06;;;12.66;48.44
9899;BME280;4988;49.238;6.698;2023-04-26T11:07:35;99198.34;;;12.71;48.41
9899;BME280;4988;49.238;6.698;2023-04-26T11:10:00;99194.25;;;12.81;47.93
9899;BME280;4988;49.238;6.698;2023-04-26T11:12:25;99190.63;;;12.82;48.56
9899;BME280;4988;49.238;6.698;2023-04-26T11:14:52;99191.91;;;12.75;50.43
9899;BME280;4988;49.238;6.698;2023-04-26T11:17:17;99186.63;;;12.74;49.38
9899;BME280;4988;49.238;6.698;2023-04-26T11:19:45;99187.31;;;12.77;47.78
9899;BME280;4988;49.238;6.698;2023-04-26T11:22:11;99189.13;;;12.77;47.20
9899;BME280;4988;49.238;6.698;2023-04-26T11:24:37;99181.69;;;12.66;47.64
9899;BME280;4988;49.238;6.698;2023-04-26T11:27:09;99181.19;;;12.59;47.89
9899;BME280;4988;49.238;6.698;2023-04-26T11:29:34;99182.28;;;12.55;48.44
9899;BME280;4988;49.238;6.698;2023-04-26T11:32:01;99180.13;;;12.46;48.52
9899;BME280;4988;49.238;6.698;2023-04-26T11:34:33;99179.41;;;12.42;49.38
9899;BME280;4988;49.238;6.698;2023-04-26T11:37:04;99185.28;;;12.49;50.26
9899;BME280;4988;49.238;6.698;2023-04-26T11:39:36;99184.22;;;12.69;50.27
9899;BME280;4988;49.238;6.698;2023-04-26T11:42:05;99181.00;;;12.62;46.90
9899;BME280;4988;49.238;6.698;2023-04-26T11:44:31;99178.91;;;12.51;47.69
9899;BME280;4988;49.238;6.698;2023-04-26T11:46:58;99179.00;;;12.50;47.60
9899;BME280;4988;49.238;6.698;2023-04-26T11:49:24;99170.88;;;12.51;48.70
9899;BME280;4988;49.238;6.698;2023-04-26T11:51:49;99170.22;;;12.64;47.59
9899;BME280;4988;49.238;6.698;2023-04-26T11:54:27;99166.72;;;12.79;46.68
9899;BME280;4988;49.238;6.698;2023-04-26T11:56:54;99173.13;;;12.93;46.36
9899;BME280;4988;49.238;6.698;2023-04-26T11:59:29;99169.44;;;13.11;48.36
9899;BME280;4988;49.238;6.698;2023-04-26T12:01:56;99163.22;;;13.27;46.97
9899;BME280;4988;49.238;6.698;2023-04-26T12:04:26;99168.50;;;13.44;46.81
9899;BME280;4988;49.238;6.698;2023-04-26T12:06:53;99156.31;;;13.55;46.09
9899;BME280;4988;49.238;6.698;2023-04-26T12:09:22;99164.91;;;13.60;46.03
9899;BME280;4988;49.238;6.698;2023-04-26T12:11:53;99158.97;;;13.55;47.87
9899;BME280;4988;49.238;6.698;2023-04-26T12:14:21;99166.78;;;13.43;47.05
9899;BME280;4988;49.238;6.698;2023-04-26T12:16:47;99169.53;;;13.26;47.15
9899;BME280;4988;49.238;6.698;2023-04-26T12:19:12;99168.38;;;13.14;46.68
9899;BME280;4988;49.238;6.698;2023-04-26T12:21:45;99166.84;;;13.26;46.21
9899;BME280;4988;49.238;6.698;2023-04-26T12:24:21;99164.06;;;13.27;45.56
9899;BME280;4988;49.238;6.698;2023-04-26T12:26:47;99165.81;;;13.12;45.48
9899;BME280;4988;49.238;6.698;2023-04-26T12:29:13;99164.69;;;13.16;46.17
9899;BME280;4988;49.238;6.698;2023-04-26T12:31:38;99172.28;;;13.08;45.98
9899;BME280;4988;49.238;6.698;2023-04-26T12:34:04;99165.97;;;13.09;45.59
9899;BME280;4988;49.238;6.698;2023-04-26T12:36:29;99169.19;;;13.16;46.46
9899;BME280;4988;49.238;6.698;2023-04-26T12:38:55;99170.91;;;13.17;45.94
9899;BME280;4988;49.238;6.698;2023-04-26T12:41:22;99168.84;;;13.06;46.70
9899;BME280;4988;49.238;6.698;2023-04-26T12:43:47;99167.34;;;13.00;45.96
9899;BME280;4988;49.238;6.698;2023-04-26T12:46:12;99163.56;;;12.89;46.21
9899;BME280;4988;49.238;6.698;2023-04-26T12:48:38;99170.09;;;12.83;47.33
9899;BME280;4988;49.238;6.698;2023-04-26T12:51:03;99155.34;;;12.76;46.46
9899;BME280;4988;49.238;6.698;2023-04-26T12:53:28;99156.25;;;12.76;45.97
9899;BME280;4988;49.238;6.698;2023-04-26T12:55:54;99159.50;;;12.65;46.67
9899;BME280;4988;49.238;6.698;2023-04-26T12:58:20;99153.22;;;12.66;46.79
9899;BME280;4988;49.238;6.698;2023-04-26T13:00:46;99149.50;;;12.69;47.90
9899;BME280;4988;49.238;6.698;2023-04-26T13:03:12;99155.00;;;12.66;46.67
9899;BME280;4988;49.238;6.698;2023-04-26T13:05:39;99156.28;;;12.59;46.85
9899;BME280;4988;49.238;6.698;2023-04-26T13:08:04;99162.31;;;12.62;46.80
9899;BME280;4988;49.238;6.698;2023-04-26T13:10:29;99157.22;;;12.58;47.21
9899;BME280;4988;49.238;6.698;2023-04-26T13:12:57;99156.38;;;12.73;46.92
9899;BME280;4988;49.238;6.698;2023-04-26T13:15:22;99156.06;;;12.79;46.89
9899;BME280;4988;49.238;6.698;2023-04-26T13:17:49;99156.59;;;12.86;46.66
9899;BME280;4988;49.238;6.698;2023-04-26T13:20:14;99155.22;;;12.95;46.82
9899;BME280;4988;49.238;6.698;2023-04-26T13:22:39;99156.75;;;12.99;46.68
9899;BME280;4988;49.238;6.698;2023-04-26T13:25:06;99150.81;;;13.10;45.76
9899;BME280;4988;49.238;6.698;2023-04-26T13:27:32;99157.25;;;13.22;46.73
9899;BME280;4988;49.238;6.698;2023-04-26T13:29:57;99148.03;;;13.27;45.26
9899;BME280;4988;49.238;6.698;2023-04-26T13:32:23;99149.31;;;13.36;46.50
9899;BME280;4988;49.238;6.698;2023-04-26T13:34:48;99150.72;;;13.43;45.12
9899;BME280;4988;49.238;6.698;2023-04-26T13:37:14;99146.84;;;13.33;44.64